This is the latest recevied weather packets stored in our database for station/object WA7CUG. If no packets are shown the sender has not sent any weather packets the latest 10 day(s).
| Time | Temp. | Humidity | Pressure | Rain* | Wind** | Luminosity | Snow |
|---|---|---|---|---|---|---|---|
| 1777442700 | 12.22° C | 67% | 1020.7 hPa | 0 mm | - | 0 W/m² | - |
| 1777442396 | 11.67° C | 66% | 1020.5 hPa | 0 mm | - | 0 W/m² | - |
| 1777442093 | 12.78° C | 66% | 1020.6 hPa | 0 mm | - | 0 W/m² | - |
| 1777441788 | 12.22° C | 67% | 1020.6 hPa | 0 mm | - | 0 W/m² | - |
| 1777441484 | 11.67° C | 70% | 1020.3 hPa | 0 mm | - | 0 W/m² | - |
| 1777441179 | 11.67° C | 71% | 1020.3 hPa | 0 mm | - | 0 W/m² | - |
| 1777440874 | 12.78° C | 70% | 1020.5 hPa | 0 mm | - | 0 W/m² | - |
| 1777440570 | 12.22° C | 64% | 1020.4 hPa | 0 mm | - | 0 W/m² | - |
| 1777440267 | 12.78° C | 67% | 1020.5 hPa | 0 mm | - | 0 W/m² | - |
| 1777439963 | 12.78° C | 61% | 1020.3 hPa | 0 mm | - | 0 W/m² | - |
| 1777439660 | 12.78° C | 65% | 1020.3 hPa | 0 mm | - | 0 W/m² | - |
| 1777439356 | 13.33° C | 62% | 1020.1 hPa | 0 mm | - | 0 W/m² | - |
| 1777439050 | 14.44° C | 58% | 1020.3 hPa | 0 mm | - | 0 W/m² | - |
| 1777438748 | 15° C | 54% | 1020.4 hPa | 0 mm | - | 0 W/m² | - |
| 1777438444 | 15.56° C | 53% | 1020.6 hPa | 0 mm | - | 0 W/m² | - |
| 1777438140 | 15.56° C | 51% | 1020.5 hPa | 0 mm | - | 0 W/m² | - |
| 1777437836 | 15.56° C | 51% | 1020.4 hPa | 0 mm | - | 0 W/m² | - |
| 1777437532 | 15.56° C | 51% | 1020.4 hPa | 0 mm | - | 0 W/m² | - |
| 1777437230 | 15.56° C | 51% | 1020.4 hPa | 0 mm | - | 0 W/m² | - |
| 1777436926 | 15.56° C | 52% | 1020.1 hPa | 0 mm | - | 0 W/m² | - |
| 1777436623 | 15.56° C | 51% | 1020 hPa | 0 mm | - | 0 W/m² | - |
| 1777436319 | 15.56° C | 52% | 1019.8 hPa | 0 mm | - | 0 W/m² | - |
| 1777436015 | 15.56° C | 50% | 1019.8 hPa | 0 mm | - | 0 W/m² | - |
| 1777435712 | 16.11° C | 49% | 1019.7 hPa | 0 mm | - | 0 W/m² | - |
| 1777435407 | 16.11° C | 48% | 1019.6 hPa | 0 mm | - | 0 W/m² | - |
* Rain latest hour (hover to see other rain measurements)
** Current wind speed in m/s (hover to see current wind gust speed)